createdAt,value
2022-09-03T00:01:15.518Z,49.72
2022-09-03T00:03:51.855Z,48.82
2022-09-03T00:06:48.245Z,48.92
2022-09-03T00:09:38.921Z,49.15
2022-09-03T00:12:10.554Z,50.24
2022-09-03T00:14:40.244Z,49.65
2022-09-03T00:17:10.324Z,50.39
2022-09-03T00:19:42.318Z,48.90
2022-09-03T00:22:11.436Z,50.52
2022-09-03T00:24:41.910Z,50.54
2022-09-03T00:27:19.161Z,49.65
2022-09-03T00:29:52.448Z,50.08
2022-09-03T00:32:38.528Z,50.30
2022-09-03T00:35:10.876Z,49.93
2022-09-03T00:38:06.299Z,50.17
2022-09-03T00:40:45.645Z,50.19
2022-09-03T00:43:15.425Z,51.71
2022-09-03T00:45:45.701Z,50.83
2022-09-03T00:48:28.017Z,51.20
2022-09-03T00:51:01.053Z,49.43
2022-09-03T00:53:31.195Z,51.81
2022-09-03T00:56:04.951Z,51.11
2022-09-03T00:58:38.238Z,51.36
2022-09-03T01:01:10.826Z,51.05
2022-09-03T01:03:42.381Z,51.37
2022-09-03T01:06:17.109Z,51.22
2022-09-03T01:09:05.117Z,51.66
2022-09-03T01:11:41.869Z,51.05
2022-09-03T01:14:22.664Z,51.09
2022-09-03T01:17:03.462Z,51.04
2022-09-03T01:19:42.576Z,50.68
2022-09-03T01:22:10.225Z,50.38
2022-09-03T01:24:59.352Z,50.79
2022-09-03T01:27:39.471Z,51.07
2022-09-03T01:30:12.896Z,51.04
2022-09-03T01:32:43.420Z,51.06
2022-09-03T01:35:16.650Z,51.54
2022-09-03T01:37:59.829Z,52.10
2022-09-03T01:40:30.760Z,52.42
2022-09-03T01:43:04.833Z,52.33
2022-09-03T01:45:32.571Z,52.89
2022-09-03T01:48:15.123Z,52.44
2022-09-03T01:50:51.432Z,52.12
2022-09-03T01:53:32.305Z,52.07
2022-09-03T01:56:11.149Z,52.52
2022-09-03T01:58:49.477Z,53.18
2022-09-03T02:01:19.701Z,52.70
2022-09-03T02:03:47.359Z,52.96
2022-09-03T02:06:20.824Z,52.04
2022-09-03T02:08:54.034Z,53.13
2022-09-03T02:11:21.349Z,52.64
2022-09-03T02:13:49.966Z,52.91
2022-09-03T02:16:20.423Z,51.85
2022-09-03T02:18:50.686Z,53.63
2022-09-03T02:21:20.108Z,55.61
2022-09-03T02:23:47.493Z,55.20
2022-09-03T02:26:16.213Z,56.18
2022-09-03T02:28:43.483Z,56.47
2022-09-03T02:31:19.147Z,55.89
2022-09-03T02:33:46.894Z,56.87
2022-09-03T02:36:15.778Z,59.17
2022-09-03T02:38:43.466Z,57.42
2022-09-03T02:41:14.142Z,55.52
2022-09-03T02:44:00.239Z,55.59
2022-09-03T02:46:30.313Z,57.93
2022-09-03T02:48:57.879Z,59.24
2022-09-03T02:51:25.074Z,57.84
2022-09-03T02:53:54.108Z,56.30
2022-09-03T02:56:24.460Z,55.41
2022-09-03T02:58:51.780Z,54.98
2022-09-03T03:01:23.922Z,54.27
2022-09-03T03:03:51.746Z,54.52
2022-09-03T03:06:21.030Z,54.18
2022-09-03T03:08:48.940Z,54.66
2022-09-03T03:11:18.244Z,54.28
2022-09-03T03:13:45.900Z,54.52
2022-09-03T03:16:13.792Z,54.80
2022-09-03T03:18:41.181Z,55.63
2022-09-03T03:21:12.715Z,55.30
2022-09-03T03:23:40.037Z,55.77
2022-09-03T03:26:09.115Z,55.58
2022-09-03T03:28:38.161Z,55.57
2022-09-03T03:31:09.854Z,55.33
2022-09-03T03:33:37.412Z,55.32
2022-09-03T03:36:08.319Z,54.91
2022-09-03T03:38:38.348Z,57.86
2022-09-03T03:41:18.337Z,57.72
2022-09-03T03:43:48.857Z,57.63
2022-09-03T03:46:16.224Z,57.77
2022-09-03T03:48:44.003Z,57.26
2022-09-03T03:54:01.008Z,55.82
2022-09-03T03:56:32.743Z,55.35
2022-09-03T03:59:00.065Z,55.22
2022-09-03T04:01:30.551Z,55.22
2022-09-03T04:04:00.015Z,55.38
2022-09-03T04:06:30.005Z,55.48
2022-09-03T04:08:57.223Z,56.58
2022-09-03T04:11:24.689Z,57.01
2022-09-03T04:13:52.289Z,57.22
2022-09-03T04:16:21.294Z,56.77
2022-09-03T04:18:56.359Z,58.23
2022-09-03T04:21:24.501Z,58.77
2022-09-03T04:23:52.873Z,57.95
2022-09-03T04:26:40.780Z,57.44
2022-09-03T04:29:09.309Z,58.01
2022-09-03T04:31:37.369Z,58.56
2022-09-03T04:34:06.554Z,58.19
2022-09-03T04:36:37.921Z,57.92
2022-09-03T04:39:07.637Z,57.68
2022-09-03T04:41:38.200Z,57.97
2022-09-03T04:44:08.715Z,57.59
2022-09-03T04:46:36.030Z,57.24
2022-09-03T04:49:03.408Z,56.99
2022-09-03T04:51:31.586Z,57.32
2022-09-03T04:54:01.920Z,58.32
2022-09-03T04:56:33.214Z,57.55
2022-09-03T04:59:04.696Z,57.01
2022-09-03T05:01:36.717Z,56.72
2022-09-03T05:04:07.377Z,56.68
2022-09-03T05:06:37.755Z,58.05
2022-09-03T05:09:05.557Z,58.31
2022-09-03T05:11:35.420Z,58.35
2022-09-03T05:14:02.710Z,58.42
2022-09-03T05:17:24.474Z,58.29
2022-09-03T05:19:28.030Z,57.77
2022-09-03T05:21:57.840Z,57.89
2022-09-03T05:24:37.272Z,58.66
2022-09-03T05:27:06.866Z,58.17
2022-09-03T05:29:34.143Z,58.25
2022-09-03T05:32:01.423Z,58.45
2022-09-03T05:34:28.664Z,58.16
2022-09-03T05:37:00.504Z,58.19
2022-09-03T05:39:27.938Z,58.52
2022-09-03T05:41:55.216Z,57.93
2022-09-03T05:44:23.819Z,57.96
2022-09-03T05:46:53.563Z,57.21
2022-09-03T05:49:23.134Z,57.26
2022-09-03T05:51:50.873Z,57.28
2022-09-03T05:54:18.319Z,58.20
2022-09-03T05:56:51.951Z,58.31
2022-09-03T05:59:21.053Z,58.20
2022-09-03T06:02:11.331Z,58.95
2022-09-03T06:04:39.581Z,57.97
2022-09-03T06:07:07.017Z,58.06
2022-09-03T06:09:34.203Z,59.08
2022-09-03T06:12:04.014Z,57.25
2022-09-03T06:14:33.329Z,58.90
2022-09-03T06:17:00.665Z,58.13
2022-09-03T06:19:28.289Z,57.81
2022-09-03T06:22:01.984Z,58.92
2022-09-03T06:24:29.969Z,56.41
2022-09-03T06:26:59.628Z,57.86
2022-09-03T06:29:27.678Z,57.31
2022-09-03T06:31:55.995Z,56.62
2022-09-03T06:34:25.638Z,56.05
2022-09-03T06:36:56.244Z,53.97
2022-09-03T06:39:24.784Z,56.12
2022-09-03T06:41:52.267Z,55.63
2022-09-03T06:44:26.903Z,54.04
2022-09-03T06:47:02.771Z,55.74
2022-09-03T06:49:31.481Z,55.10
2022-09-03T06:51:58.847Z,55.05
2022-09-03T06:54:27.732Z,56.41
2022-09-03T06:56:55.638Z,55.66
2022-09-03T06:59:22.918Z,55.94
2022-09-03T07:01:50.266Z,53.39
2022-09-03T07:04:20.125Z,53.81
2022-09-03T07:06:47.959Z,52.98
2022-09-03T07:09:21.031Z,52.32
2022-09-03T07:11:49.283Z,52.53
2022-09-03T07:14:19.755Z,51.57
2022-09-03T07:16:47.852Z,51.39
2022-09-03T07:19:15.392Z,53.68
2022-09-03T07:21:55.928Z,53.61
2022-09-03T07:24:23.513Z,54.00
2022-09-03T07:26:50.809Z,53.90
2022-09-03T07:29:20.697Z,52.61
2022-09-03T07:31:52.121Z,51.89
2022-09-03T07:34:20.441Z,51.61
2022-09-03T07:36:51.333Z,51.72
2022-09-03T07:39:19.925Z,51.30
2022-09-03T07:41:48.413Z,51.41
2022-09-03T07:44:19.520Z,52.34
2022-09-03T07:50:39.190Z,52.65
2022-09-03T07:53:06.549Z,52.35
2022-09-03T07:55:33.945Z,53.23
2022-09-03T07:58:01.238Z,53.36
2022-09-03T08:00:28.627Z,53.31
2022-09-03T08:03:01.561Z,51.92
2022-09-03T08:05:36.293Z,52.31
2022-09-03T08:08:04.250Z,51.88
2022-09-03T08:10:38.569Z,51.78
2022-09-03T08:13:10.720Z,52.78
2022-09-03T08:15:56.195Z,51.60
2022-09-03T08:18:27.279Z,50.28
2022-09-03T08:20:59.277Z,49.16
2022-09-03T08:23:28.787Z,48.96
2022-09-03T08:26:02.099Z,50.77
2022-09-03T08:28:30.047Z,49.61
2022-09-03T08:30:59.641Z,49.51
2022-09-03T08:33:38.625Z,48.39
2022-09-03T08:36:07.226Z,48.42
2022-09-03T08:38:35.218Z,47.88
2022-09-03T08:41:03.885Z,48.61
2022-09-03T08:43:33.205Z,48.26
2022-09-03T08:48:46.638Z,47.07
2022-09-03T08:51:14.531Z,46.87
2022-09-03T08:53:57.587Z,46.33
2022-09-03T08:56:29.677Z,46.59
2022-09-03T08:58:57.082Z,44.59
2022-09-03T09:01:33.617Z,45.71
2022-09-03T09:04:12.414Z,47.87
2022-09-03T09:06:42.255Z,45.08
2022-09-03T09:09:23.770Z,46.59
2022-09-03T09:11:53.974Z,45.55
2022-09-03T09:14:30.144Z,46.75
2022-09-03T09:17:15.727Z,47.90
2022-09-03T09:19:46.158Z,47.32
2022-09-03T09:22:25.411Z,47.20
2022-09-03T09:24:52.655Z,47.24
2022-09-03T09:27:27.130Z,47.47
2022-09-03T09:29:54.412Z,46.96
2022-09-03T09:32:21.908Z,47.38
2022-09-03T09:34:52.558Z,49.00
2022-09-03T09:37:22.589Z,49.39
2022-09-03T09:39:57.269Z,47.99
2022-09-03T09:42:27.722Z,48.75
2022-09-03T09:45:00.248Z,48.04
2022-09-03T09:47:34.592Z,48.72
2022-09-03T09:50:05.263Z,47.01
2022-09-03T09:52:35.222Z,47.23
2022-09-03T09:55:09.819Z,47.33
2022-09-03T09:57:39.416Z,47.30
2022-09-03T10:00:17.690Z,47.38
2022-09-03T10:02:54.790Z,46.69
2022-09-03T10:05:22.299Z,48.66
2022-09-03T10:08:04.495Z,45.80
2022-09-03T10:10:37.973Z,45.70
2022-09-03T10:13:10.840Z,46.96
2022-09-03T10:15:46.074Z,46.66
2022-09-03T10:18:16.550Z,46.03
2022-09-03T10:20:51.062Z,48.00
2022-09-03T10:23:25.764Z,46.07
2022-09-03T10:26:07.307Z,45.96
2022-09-03T10:28:39.421Z,47.40
2022-09-03T10:31:19.767Z,47.18
2022-09-03T10:33:55.453Z,48.99
2022-09-03T10:36:26.944Z,48.47
2022-09-03T10:39:14.382Z,47.98
2022-09-03T10:42:03.685Z,47.17
2022-09-03T10:44:35.170Z,47.00
2022-09-03T10:47:09.779Z,47.51
2022-09-03T10:49:49.629Z,46.72
2022-09-03T10:52:25.756Z,48.77
2022-09-03T10:55:18.457Z,47.78
2022-09-03T10:57:50.892Z,44.58
2022-09-03T11:00:41.251Z,44.01
2022-09-03T11:03:21.366Z,44.60
2022-09-03T11:05:51.594Z,44.56
2022-09-03T11:08:25.115Z,43.90
2022-09-03T11:10:54.000Z,45.25
2022-09-03T11:13:28.640Z,43.75
2022-09-03T11:16:01.983Z,41.86
2022-09-03T11:18:46.932Z,41.92
2022-09-03T11:21:14.923Z,39.39
2022-09-03T11:23:49.144Z,41.29
2022-09-03T11:26:23.186Z,39.42
2022-09-03T11:28:58.669Z,40.07
2022-09-03T11:31:57.828Z,40.84
2022-09-03T11:34:32.208Z,38.67
2022-09-03T11:37:21.233Z,36.81
2022-09-03T11:40:07.909Z,41.63
2022-09-03T11:42:38.872Z,41.52
2022-09-03T11:45:14.765Z,39.12
2022-09-03T11:47:45.733Z,38.41
2022-09-03T11:50:23.577Z,39.48
2022-09-03T11:52:54.257Z,41.72
2022-09-03T11:55:44.933Z,42.02
2022-09-03T11:58:14.170Z,40.94
2022-09-03T12:00:44.606Z,39.37
2022-09-03T12:03:16.054Z,32.49
2022-09-03T12:05:48.732Z,34.77
2022-09-03T12:08:34.807Z,38.04
2022-09-03T12:11:26.143Z,35.27
2022-09-03T12:14:06.479Z,36.42
2022-09-03T12:16:38.996Z,38.68
2022-09-03T12:19:35.525Z,38.47
2022-09-03T12:22:04.603Z,35.10
2022-09-03T12:24:38.317Z,32.11
2022-09-03T12:27:08.112Z,32.26
2022-09-03T12:30:00.080Z,33.38
2022-09-03T12:32:37.630Z,34.49
2022-09-03T12:38:44.458Z,40.06
2022-09-03T12:41:29.417Z,40.54
2022-09-03T12:44:39.995Z,42.56
2022-09-03T12:49:58.935Z,41.68
2022-09-03T12:52:29.458Z,37.24
2022-09-03T12:55:05.291Z,36.41
2022-09-03T12:57:36.661Z,35.17
2022-09-03T13:00:07.127Z,33.52
2022-09-03T13:02:37.344Z,34.43
2022-09-03T13:05:07.763Z,33.13
2022-09-03T13:07:37.339Z,34.17
2022-09-03T13:10:07.850Z,36.75
2022-09-03T13:12:35.759Z,34.33
2022-09-03T13:15:07.112Z,35.19
2022-09-03T13:17:52.972Z,35.29
2022-09-03T13:20:22.843Z,36.15
2022-09-03T13:23:06.995Z,39.81
2022-09-03T13:25:36.083Z,40.38
2022-09-03T13:28:14.649Z,41.01
2022-09-03T13:30:51.322Z,42.40
2022-09-03T13:33:22.024Z,43.03
2022-09-03T13:36:04.191Z,44.50
2022-09-03T13:38:48.969Z,43.54
2022-09-03T13:41:25.265Z,41.86
2022-09-03T13:43:54.891Z,43.00
2022-09-03T13:46:46.470Z,43.18
2022-09-03T13:50:01.829Z,44.46
2022-09-03T13:52:43.062Z,44.83
2022-09-03T13:55:22.560Z,44.13
2022-09-03T13:57:51.251Z,44.28
2022-09-03T14:00:44.818Z,44.70
2022-09-03T14:03:16.290Z,44.59
2022-09-03T14:05:56.312Z,43.97
2022-09-03T14:08:35.470Z,44.27
2022-09-03T14:11:12.823Z,45.87
2022-09-03T14:14:19.869Z,45.67
2022-09-03T14:16:47.142Z,45.48
2022-09-03T14:19:27.045Z,46.40
2022-09-03T14:22:04.781Z,46.85
2022-09-03T14:24:48.665Z,47.49
2022-09-03T14:27:25.364Z,46.84
2022-09-03T14:29:59.257Z,46.67
2022-09-03T14:32:52.958Z,47.95
2022-09-03T14:35:36.825Z,47.13
2022-09-03T14:38:10.170Z,47.60
2022-09-03T14:40:42.662Z,48.19
2022-09-03T14:43:16.003Z,49.07
2022-09-03T14:45:52.881Z,49.78
2022-09-03T14:48:31.078Z,50.47
2022-09-03T14:51:11.130Z,51.29
2022-09-03T14:53:44.955Z,51.90
2022-09-03T14:56:15.356Z,51.07
2022-09-03T14:58:48.535Z,50.85
2022-09-03T15:01:18.913Z,51.05
2022-09-03T15:03:49.870Z,51.65
2022-09-03T15:06:30.741Z,51.84
2022-09-03T15:09:18.861Z,52.87
2022-09-03T15:11:49.112Z,53.16
2022-09-03T15:14:25.208Z,52.66
2022-09-03T15:16:55.489Z,52.46
2022-09-03T15:19:37.427Z,52.00
2022-09-03T15:22:38.008Z,52.34
2022-09-03T15:25:15.747Z,52.52
2022-09-03T15:27:49.107Z,53.23
2022-09-03T15:30:46.248Z,52.99
2022-09-03T15:33:16.433Z,53.06
2022-09-03T15:35:52.989Z,53.33
2022-09-03T15:38:28.813Z,53.34
2022-09-03T15:41:31.608Z,54.07
2022-09-03T15:44:00.248Z,54.54
2022-09-03T15:46:34.709Z,54.29
2022-09-03T15:49:08.953Z,53.89
2022-09-03T15:51:37.074Z,53.62
2022-09-03T15:54:20.065Z,54.28
2022-09-03T15:56:55.928Z,54.71
2022-09-03T15:59:32.399Z,53.96
2022-09-03T16:02:04.417Z,53.33
2022-09-03T16:04:50.659Z,53.59
2022-09-03T16:07:26.007Z,53.27
2022-09-03T16:10:28.227Z,53.99
2022-09-03T16:13:14.834Z,53.57
2022-09-03T16:15:52.071Z,52.68
2022-09-03T16:18:26.484Z,51.36
2022-09-03T16:21:03.472Z,51.75
2022-09-03T16:24:08.641Z,52.64
2022-09-03T16:26:42.214Z,52.86
2022-09-03T16:29:14.614Z,52.63
2022-09-03T16:32:05.800Z,53.14
2022-09-03T16:34:42.810Z,52.64
2022-09-03T16:37:39.798Z,52.54
2022-09-03T16:40:26.465Z,52.04
2022-09-03T16:43:05.135Z,52.47
2022-09-03T16:45:44.155Z,51.84
2022-09-03T16:48:17.899Z,53.14
2022-09-03T16:50:46.117Z,53.18
2022-09-03T16:53:28.749Z,53.89
2022-09-03T16:56:07.711Z,53.42
2022-09-03T16:58:35.342Z,54.25
2022-09-03T17:01:08.797Z,53.98
2022-09-03T17:03:53.645Z,53.80
2022-09-03T17:06:40.304Z,54.00
2022-09-03T17:09:15.570Z,54.22
2022-09-03T17:11:42.791Z,53.89
2022-09-03T17:14:28.696Z,53.67
2022-09-03T17:17:09.639Z,53.59
2022-09-03T17:19:54.078Z,54.38
2022-09-03T17:22:51.238Z,54.48
2022-09-03T17:25:27.523Z,54.54
2022-09-03T17:27:57.757Z,54.74
2022-09-03T17:30:43.649Z,54.41
2022-09-03T17:33:27.611Z,53.62
2022-09-03T17:36:18.733Z,54.59
2022-09-03T17:39:01.411Z,54.75
2022-09-03T17:41:33.987Z,54.70
2022-09-03T17:44:01.695Z,55.05
2022-09-03T17:46:32.001Z,54.93
2022-09-03T17:49:02.669Z,55.11
2022-09-03T17:51:32.188Z,55.40
2022-09-03T17:54:05.679Z,54.84
2022-09-03T17:56:36.027Z,55.69
2022-09-03T17:59:10.264Z,56.45
2022-09-03T18:01:38.041Z,56.68
2022-09-03T18:04:11.647Z,56.94
2022-09-03T18:06:41.971Z,57.26
2022-09-03T18:09:09.191Z,58.02
2022-09-03T18:11:55.332Z,58.10
2022-09-03T18:14:29.378Z,58.47
2022-09-03T18:17:05.413Z,58.33
2022-09-03T18:20:00.665Z,58.83
2022-09-03T18:23:05.284Z,58.52
2022-09-03T18:25:51.194Z,58.78
2022-09-03T18:28:37.068Z,58.89
2022-09-03T18:31:23.344Z,57.94
2022-09-03T18:34:11.788Z,57.50
2022-09-03T18:36:57.557Z,57.39
2022-09-03T18:39:45.671Z,58.61
2022-09-03T18:42:50.683Z,59.01
2022-09-03T18:49:09.500Z,57.84
2022-09-03T18:51:58.643Z,57.48
2022-09-03T18:55:06.753Z,58.21
2022-09-03T18:58:14.345Z,57.88
2022-09-03T19:01:02.652Z,58.19
2022-09-03T19:03:58.182Z,58.39
2022-09-03T19:06:58.302Z,57.65
2022-09-03T19:09:44.386Z,58.82
2022-09-03T19:12:51.798Z,59.70
2022-09-03T19:15:49.727Z,60.81
2022-09-03T19:18:55.799Z,61.47
2022-09-03T19:21:53.053Z,61.29
2022-09-03T19:24:42.193Z,61.81
2022-09-03T19:27:54.329Z,61.50
2022-09-03T19:30:58.305Z,61.07
2022-09-03T19:33:54.127Z,61.65
2022-09-03T19:36:43.711Z,60.45
2022-09-03T19:39:38.988Z,61.22
2022-09-03T19:42:27.381Z,62.20
2022-09-03T19:45:16.661Z,61.57
2022-09-03T19:48:23.278Z,62.17
2022-09-03T19:51:26.370Z,62.79
2022-09-03T19:54:12.044Z,61.55
2022-09-03T19:57:05.643Z,61.91
2022-09-03T19:59:59.548Z,60.92
2022-09-03T20:02:47.949Z,60.23
2022-09-03T20:05:37.455Z,59.42
2022-09-03T20:08:26.143Z,60.10
2022-09-03T20:10:56.784Z,60.82
2022-09-03T20:13:24.052Z,60.34
2022-09-03T20:16:13.954Z,60.32
2022-09-03T20:19:00.187Z,59.65
2022-09-03T20:21:47.681Z,59.35
2022-09-03T20:24:15.027Z,59.42
2022-09-03T20:27:02.019Z,59.63
2022-09-03T20:29:42.276Z,59.34
2022-09-03T20:32:28.442Z,59.65
2022-09-03T20:35:04.038Z,60.00
2022-09-03T20:37:34.432Z,59.57
2022-09-03T20:40:22.076Z,60.14
2022-09-03T20:42:59.054Z,61.79
2022-09-03T20:45:47.462Z,62.10
2022-09-03T20:48:36.772Z,62.28
2022-09-03T20:51:10.241Z,61.51
2022-09-03T20:53:50.187Z,62.04
2022-09-03T20:56:23.520Z,61.93
2022-09-03T20:59:11.191Z,63.06
2022-09-03T21:01:45.270Z,63.12
2022-09-03T21:04:17.973Z,62.48
2022-09-03T21:06:50.995Z,61.86
2022-09-03T21:12:29.529Z,61.46
2022-09-03T21:15:14.779Z,61.90
2022-09-03T21:17:51.643Z,61.30
2022-09-03T21:20:33.025Z,61.39
2022-09-03T21:23:09.179Z,61.40
2022-09-03T21:26:02.400Z,62.43
2022-09-03T21:28:32.061Z,62.60
2022-09-03T21:31:01.355Z,63.18
2022-09-03T21:33:32.945Z,63.23
2022-09-03T21:36:08.604Z,62.68
2022-09-03T21:38:39.583Z,61.90
2022-09-03T21:41:06.918Z,62.38
2022-09-03T21:43:46.272Z,63.65
2022-09-03T21:46:49.464Z,63.33
2022-09-03T21:49:36.974Z,62.70
2022-09-03T21:52:06.488Z,61.83
2022-09-03T21:54:34.238Z,61.05
2022-09-03T21:57:07.477Z,61.21
2022-09-03T21:59:37.810Z,61.47
2022-09-03T22:02:05.057Z,61.38
2022-09-03T22:07:23.666Z,61.24
2022-09-03T22:10:09.343Z,62.44
2022-09-03T22:12:50.359Z,62.88
2022-09-03T22:15:17.782Z,63.16
2022-09-03T22:17:50.951Z,62.42
2022-09-03T22:20:18.381Z,62.00
2022-09-03T22:22:56.437Z,62.59
2022-09-03T22:25:40.578Z,61.77
2022-09-03T22:28:11.312Z,62.67
2022-09-03T22:31:01.954Z,63.90
2022-09-03T22:33:32.424Z,63.55
2022-09-03T22:36:00.251Z,62.70
2022-09-03T22:38:37.079Z,62.62
2022-09-03T22:41:23.090Z,63.13
2022-09-03T22:44:12.700Z,63.40
2022-09-03T22:47:01.558Z,64.12
2022-09-03T22:49:32.428Z,63.62
2022-09-03T22:52:03.476Z,63.79
2022-09-03T22:54:45.983Z,63.40
2022-09-03T22:57:15.372Z,63.89
2022-09-03T22:59:48.658Z,64.23
2022-09-03T23:02:23.310Z,63.67
2022-09-03T23:04:59.595Z,63.45
2022-09-03T23:07:34.997Z,63.63
2022-09-03T23:10:05.346Z,63.54
2022-09-03T23:12:39.436Z,63.51
2022-09-03T23:15:11.456Z,63.81
2022-09-03T23:17:40.557Z,63.35
2022-09-03T23:22:46.133Z,63.64
2022-09-03T23:25:22.566Z,63.08
2022-09-03T23:28:10.061Z,63.52
2022-09-03T23:30:37.391Z,62.81
2022-09-03T23:33:08.804Z,62.61
2022-09-03T23:35:39.219Z,62.59
2022-09-03T23:38:11.570Z,62.71
2022-09-03T23:40:38.913Z,63.15
2022-09-03T23:43:21.215Z,62.93
2022-09-03T23:46:05.805Z,63.26
2022-09-03T23:48:39.190Z,62.80
2022-09-03T23:51:25.452Z,62.76
2022-09-03T23:54:01.658Z,62.70
2022-09-03T23:56:28.965Z,62.68
2022-09-03T23:59:02.333Z,62.81
